createdAt,value
2022-11-25T00:01:05.435Z,6.78
2022-11-25T00:06:15.963Z,6.55
2022-11-25T00:11:19.593Z,7.43
2022-11-25T00:16:23.345Z,8.32
2022-11-25T00:21:29.578Z,7.72
2022-11-25T00:26:33.787Z,7.25
2022-11-25T00:31:41.376Z,7.45
2022-11-25T00:36:46.031Z,7.78
2022-11-25T00:42:06.142Z,8.30
2022-11-25T00:47:12.367Z,7.37
2022-11-25T00:52:19.007Z,8.52
2022-11-25T00:57:24.651Z,7.93
2022-11-25T01:02:27.678Z,7.55
2022-11-25T01:07:32.243Z,7.25
2022-11-25T01:12:35.069Z,8.00
2022-11-25T01:17:37.852Z,7.50
2022-11-25T01:22:41.972Z,7.70
2022-11-25T01:27:44.709Z,7.25
2022-11-25T01:32:47.487Z,8.05
2022-11-25T01:37:51.663Z,7.28
2022-11-25T01:42:54.415Z,6.55
2022-11-25T01:48:01.325Z,7.45
2022-11-25T01:53:09.148Z,6.95
2022-11-25T01:58:16.151Z,5.35
2022-11-25T02:03:23.031Z,5.28
2022-11-25T02:08:27.741Z,5.35
2022-11-25T02:13:30.690Z,6.57
2022-11-25T02:18:33.663Z,5.05
2022-11-25T02:23:44.616Z,4.55
2022-11-25T02:28:49.793Z,4.93
2022-11-25T02:33:53.348Z,5.35
2022-11-25T02:38:58.053Z,4.63
2022-11-25T02:44:04.958Z,5.40
2022-11-25T02:49:10.208Z,3.92
2022-11-25T02:54:14.482Z,4.55
2022-11-25T02:59:18.751Z,4.38
2022-11-25T03:04:22.756Z,4.30
2022-11-25T03:09:25.577Z,4.47
2022-11-25T03:14:31.451Z,5.75
2022-11-25T03:19:34.297Z,4.97
2022-11-25T03:24:37.273Z,4.82
2022-11-25T03:29:41.944Z,4.90
2022-11-25T03:34:44.836Z,4.88
2022-11-25T03:39:47.765Z,5.55
2022-11-25T03:44:52.144Z,4.45
2022-11-25T03:49:55.383Z,4.68
2022-11-25T03:54:58.370Z,3.97
2022-11-25T04:00:09.366Z,4.80
2022-11-25T04:05:20.787Z,4.72
2022-11-25T04:10:25.110Z,4.90
2022-11-25T04:15:31.011Z,4.78
2022-11-25T04:20:35.038Z,5.30
2022-11-25T04:25:41.112Z,4.95
2022-11-25T04:30:50.607Z,4.70
2022-11-25T04:35:53.972Z,4.80
2022-11-25T04:40:57.248Z,4.80
2022-11-25T04:46:18.221Z,6.00
2022-11-25T04:51:26.371Z,5.57
2022-11-25T04:56:33.734Z,5.60
2022-11-25T05:01:38.411Z,6.43
2022-11-25T05:06:59.595Z,4.75
2022-11-25T05:12:03.037Z,4.50
2022-11-25T05:17:08.834Z,5.78
2022-11-25T05:22:12.336Z,7.07
2022-11-25T05:27:18.105Z,5.82
2022-11-25T05:32:22.811Z,5.82
2022-11-25T05:37:25.914Z,6.40
2022-11-25T05:42:38.122Z,6.05
2022-11-25T05:47:44.835Z,6.43
2022-11-25T05:52:51.564Z,7.15
2022-11-25T05:57:54.507Z,7.28
2022-11-25T06:02:59.231Z,7.50
2022-11-25T06:08:02.711Z,7.63
2022-11-25T06:13:05.845Z,7.72
2022-11-25T06:18:10.462Z,8.63
2022-11-25T06:23:14.081Z,7.85
2022-11-25T06:28:17.034Z,7.78
2022-11-25T06:33:25.468Z,9.10
2022-11-25T06:38:29.034Z,7.32
2022-11-25T06:43:32.715Z,8.13
2022-11-25T06:48:37.670Z,8.25
2022-11-25T06:53:41.114Z,7.97
2022-11-25T06:58:44.845Z,8.73
2022-11-25T07:03:50.807Z,9.98
2022-11-25T07:08:53.744Z,10.60
2022-11-25T07:13:58.569Z,11.55
2022-11-25T07:19:04.244Z,10.55
2022-11-25T07:24:08.657Z,8.38
2022-11-25T07:29:43.997Z,6.60
2022-11-25T07:34:37.380Z,7.13
2022-11-25T07:39:40.199Z,7.57
2022-11-25T07:44:42.972Z,8.57
2022-11-25T07:50:10.705Z,9.07
2022-11-25T07:55:13.509Z,10.32
2022-11-25T08:00:17.303Z,9.68
2022-11-25T08:05:21.396Z,10.20
2022-11-25T08:10:24.300Z,9.90
2022-11-25T08:15:27.105Z,11.40
2022-11-25T08:20:31.444Z,10.73
2022-11-25T08:25:34.256Z,10.95
2022-11-25T08:30:37.213Z,10.48
2022-11-25T08:35:41.379Z,10.82
2022-11-25T08:40:45.475Z,11.73
2022-11-25T08:45:48.597Z,11.82
2022-11-25T08:50:55.529Z,13.23
2022-11-25T08:55:58.277Z,12.02
2022-11-25T09:01:01.200Z,11.32
2022-11-25T09:06:06.071Z,9.63
2022-11-25T09:11:09.881Z,8.38
2022-11-25T09:16:12.829Z,13.73
2022-11-25T09:21:18.657Z,5.40
2022-11-25T09:26:24.632Z,6.90
2022-11-25T09:31:27.659Z,6.85
2022-11-25T09:36:31.874Z,4.93
2022-11-25T09:42:11.436Z,5.68
2022-11-25T09:47:23.707Z,6.03
2022-11-25T09:52:38.263Z,5.38
2022-11-25T09:57:59.111Z,5.15
2022-11-25T10:03:07.903Z,5.22
2022-11-25T10:08:16.848Z,5.20
2022-11-25T10:13:23.169Z,5.22
2022-11-25T10:18:30.868Z,5.20
2022-11-25T10:23:38.630Z,5.57
2022-11-25T10:28:46.402Z,5.07
2022-11-25T10:33:52.864Z,4.63
2022-11-25T10:39:00.945Z,4.70
2022-11-25T10:44:04.955Z,3.88
2022-11-25T10:49:15.695Z,4.68
2022-11-25T10:54:27.495Z,3.67
2022-11-25T10:59:33.244Z,5.00
2022-11-25T11:04:37.673Z,4.85
2022-11-25T11:09:42.095Z,4.72
2022-11-25T11:14:44.858Z,5.00
2022-11-25T11:20:02.151Z,5.63
2022-11-25T11:25:24.275Z,5.18
2022-11-25T11:30:29.459Z,5.73
2022-11-25T11:35:47.903Z,5.65
2022-11-25T11:40:56.264Z,5.30
2022-11-25T11:46:12.661Z,5.85
2022-11-25T11:51:23.807Z,5.63
2022-11-25T11:56:36.186Z,5.78
2022-11-25T12:01:50.070Z,7.45
2022-11-25T12:07:03.621Z,8.43
2022-11-25T12:12:14.271Z,9.00
2022-11-25T12:17:21.756Z,9.07
2022-11-25T12:22:29.942Z,8.65
2022-11-25T12:27:38.751Z,9.05
2022-11-25T12:32:58.070Z,8.82
2022-11-25T12:38:09.919Z,7.82
2022-11-25T12:43:26.830Z,8.13
2022-11-25T12:48:29.656Z,7.03
2022-11-25T12:53:42.635Z,8.85
2022-11-25T12:59:04.360Z,8.13
2022-11-25T13:04:38.453Z,8.25
2022-11-25T13:09:57.572Z,8.02
2022-11-25T13:15:21.520Z,10.05
2022-11-25T13:20:38.081Z,8.15
2022-11-25T13:25:43.380Z,8.93
2022-11-25T13:30:51.514Z,9.07
2022-11-25T13:35:55.151Z,7.97
2022-11-25T13:41:00.208Z,6.82
2022-11-25T13:46:04.489Z,7.50
2022-11-25T13:51:19.727Z,6.90
2022-11-25T13:56:29.413Z,6.28
2022-11-25T14:01:33.532Z,6.65
2022-11-25T14:07:02.760Z,6.57
2022-11-25T14:12:34.696Z,7.13
2022-11-25T14:18:09.932Z,7.47
2022-11-25T14:23:50.593Z,6.22
2022-11-25T14:28:58.906Z,6.28
2022-11-25T14:34:12.017Z,6.20
2022-11-25T14:39:22.750Z,6.18
2022-11-25T14:44:29.559Z,6.57
2022-11-25T14:49:55.730Z,6.45
2022-11-25T14:55:12.783Z,6.82
2022-11-25T15:00:17.789Z,6.60
2022-11-25T15:05:26.059Z,6.35
2022-11-25T15:10:42.054Z,7.25
2022-11-25T15:15:49.319Z,6.85
2022-11-25T15:20:58.359Z,6.85
2022-11-25T15:26:02.162Z,7.05
2022-11-25T15:31:10.488Z,7.55
2022-11-25T15:36:14.711Z,7.38
2022-11-25T15:41:21.637Z,7.72
2022-11-25T15:46:25.558Z,7.82
2022-11-25T15:51:41.573Z,7.28
2022-11-25T15:56:48.964Z,8.48
2022-11-25T16:01:51.816Z,8.05
2022-11-25T16:06:59.499Z,9.18
2022-11-25T16:12:07.403Z,8.98
2022-11-25T16:17:13.011Z,9.05
2022-11-25T16:22:19.900Z,7.82
2022-11-25T16:27:25.318Z,7.47
2022-11-25T16:32:31.508Z,6.93
2022-11-25T16:37:35.619Z,7.75
2022-11-25T16:42:39.052Z,6.85
2022-11-25T16:47:41.772Z,6.53
2022-11-25T16:57:48.468Z,5.88
2022-11-25T17:02:51.264Z,6.57
2022-11-25T17:07:55.477Z,6.78
2022-11-25T17:12:58.380Z,5.65
2022-11-25T17:18:01.920Z,5.68
2022-11-25T17:23:13.124Z,5.45
2022-11-25T17:28:18.387Z,6.38
2022-11-25T17:33:21.322Z,6.47
2022-11-25T17:38:25.448Z,7.03
2022-11-25T17:43:34.363Z,6.65
2022-11-25T17:48:37.990Z,6.68
2022-11-25T17:53:42.755Z,6.60
2022-11-25T17:58:45.796Z,8.80
2022-11-25T18:03:49.440Z,8.05
2022-11-25T18:08:53.533Z,7.72
2022-11-25T18:13:56.522Z,7.80
2022-11-25T18:18:59.290Z,7.25
2022-11-25T18:24:03.483Z,7.72
2022-11-25T18:29:07.975Z,7.40
2022-11-25T18:34:15.374Z,7.10
2022-11-25T18:39:19.777Z,7.47
2022-11-25T18:44:37.498Z,6.50
2022-11-25T18:49:40.374Z,6.55
2022-11-25T18:54:44.478Z,6.43
2022-11-25T18:59:55.992Z,6.05
2022-11-25T19:05:03.828Z,5.57
2022-11-25T19:10:13.577Z,5.93
2022-11-25T19:15:21.286Z,5.45
2022-11-25T19:20:25.001Z,5.35
2022-11-25T19:25:29.568Z,6.72
2022-11-25T19:30:33.384Z,6.90
2022-11-25T19:35:38.558Z,8.05
2022-11-25T19:40:42.755Z,6.88
2022-11-25T19:45:46.439Z,6.57
2022-11-25T19:50:51.925Z,9.95
2022-11-25T19:55:56.030Z,8.77
2022-11-25T20:01:03.090Z,9.45
2022-11-25T20:06:06.448Z,8.32
2022-11-25T20:11:13.000Z,8.90
2022-11-25T20:16:19.124Z,9.27
2022-11-25T20:21:27.706Z,8.60
2022-11-25T20:26:35.248Z,10.65
2022-11-25T20:31:38.013Z,10.15
2022-11-25T20:36:42.294Z,10.60
2022-11-25T20:41:49.103Z,10.90
2022-11-25T20:46:51.879Z,12.50
2022-11-25T20:51:54.661Z,11.65
2022-11-25T20:57:00.592Z,13.00
2022-11-25T21:02:03.388Z,11.98
2022-11-25T21:07:11.552Z,13.40
2022-11-25T21:12:19.590Z,12.18
2022-11-25T21:17:22.497Z,13.10
2022-11-25T21:27:29.325Z,13.30
2022-11-25T21:32:32.171Z,14.43
2022-11-25T21:37:36.662Z,14.40
2022-11-25T21:42:40.819Z,15.00
2022-11-25T21:47:43.623Z,13.85
2022-11-25T21:52:46.601Z,15.73
2022-11-25T21:57:51.318Z,16.00
2022-11-25T22:02:54.153Z,16.17
2022-11-25T22:07:57.146Z,15.57
2022-11-25T22:13:01.511Z,16.48
2022-11-25T22:18:04.275Z,16.08
2022-11-25T22:23:14.851Z,18.55
2022-11-25T22:28:21.506Z,15.95
2022-11-25T22:33:29.891Z,16.63
2022-11-25T22:38:32.666Z,16.55
2022-11-25T22:43:43.814Z,16.20
2022-11-25T22:48:47.126Z,19.15
2022-11-25T22:53:49.977Z,18.25
2022-11-25T22:58:59.980Z,19.70
2022-11-25T23:04:03.013Z,17.63
2022-11-25T23:09:11.189Z,19.65
2022-11-25T23:14:15.573Z,17.70
2022-11-25T23:19:18.341Z,18.05
2022-11-25T23:24:21.118Z,19.10
2022-11-25T23:29:25.548Z,18.42
2022-11-25T23:34:28.356Z,20.02
2022-11-25T23:39:32.347Z,20.65
2022-11-25T23:44:36.805Z,20.42
2022-11-25T23:49:44.098Z,20.13
2022-11-25T23:54:48.812Z,17.92
2022-11-25T23:59:53.614Z,17.88
